Rapid City, SD

4:51 AM MDT on July 29, 2016 (GMT -0600)
APRSWXNET | | Change Station
Active Advisory: Special Statement

Elev 3264 ft 44.08 °N, 103.21 °W | Updated 33 minutes ago

Overcast
Overcast
58 °F
Feels Like 58 °F
N
Wind Variable Wind from SSE
Gusts 0.0 mph

Today
High -- | Low -- °F
--% Chance of Precip.
Yesterday
High -- | Low -- °F
Precip. -- in
Pressure 30.13 in
Visibility 0.8 miles
Clouds Mostly Cloudy 100 ft
Overcast 2400 ft
Dew Point 56 °F
Humidity 93%
Rainfall in
Snow Depth Not available.
5:38 AM 8:19 PM
Waning Crescent, 23% visible
SPECI KRAP 291042Z AUTO 00000KT 3/4SM BR BKN001 OVC024 13/13 A3013 RMK AO2 T01330128 RVRNO
Pressure 30.13 in
Visibility 0.8 miles
Clouds Mostly Cloudy 100 ft
Overcast 2400 ft
Dew Point 56 °F
Humidity 93%
Rainfall in
Snow Depth Not available.
5:38 AM 8:19 PM
Waning Crescent, 23% visible
SPECI KRAP 291042Z AUTO 00000KT 3/4SM BR BKN001 OVC024 13/13 A3013 RMK AO2 T01330128 RVRNO

10-Day Weather Forecast

Almanac

Astronomy

Jul. 29, 2016 Rise Set
Actual Time
Civil Twilight
Nautical Twilight
Astronomical Twilight
Moon
Length of Visible Light
Length of Day
Tomorrow will be .
, % of the Moon is Illuminated

Today's Extremes

State Highs State Lows

Community

WunderPhotos

Upload Photos

1,928,311 photos uploaded!

WunderBlog® & News

Nearby

Air Quality

  Air Quality AQ Index Pollutant
Not available.

Snow Depth

Station Depth Elevation

Earthquake Activity

City Distance Mag. Time & Date
Minimum magnitude displayed is 2.5.

Coastal Water Temperatures

Place Temperature

Stations

Nearby Weather Stations

Station Location Temp. Windchill Dew Point Humidity Wind Precip. Elev Updated Type
                   

Watches & Warnings

Special Statement
Issued: 4:40 AM MDT Jul. 29, 2016 – National Weather Service

... Areas of dense fog this morning...

Areas of dense fog can be expected this morning. Visibilities down
to less than one hundred feet are possible. Motorist should expect
rapid changes in visibility. Slow down if fog is encountered and
use your low beam headlights. Fog will begin to lift after
sunrise.



440 am MDT Fri Jul 29 2016

... Areas of dense fog this morning...

Areas of dense fog can be expected this morning. Visibilities down
to less than one hundred feet are possible. Motorist should expect
rapid changes in visibility. Slow down if fog is encountered and
use your low beam headlights. Fog will begin to lift after
sunrise.